createdAt,value
2018-03-08T00:00:30.695Z,42.77
2018-03-08T00:02:35.340Z,38.83
2018-03-08T00:04:36.392Z,39.63
2018-03-08T00:06:38.448Z,38.40
2018-03-08T00:08:40.506Z,41.07
2018-03-08T00:10:42.169Z,41.77
2018-03-08T00:12:45.598Z,41.03
2018-03-08T00:14:47.523Z,40.37
2018-03-08T00:18:58.927Z,41.07
2018-03-08T00:21:03.250Z,42.97
2018-03-08T00:23:08.813Z,40.17
2018-03-08T00:25:12.365Z,43.47
2018-03-08T00:27:13.448Z,40.60
2018-03-08T00:31:54.079Z,36.07
2018-03-08T00:33:55.103Z,34.93
2018-03-08T00:35:58.150Z,30.73
2018-03-08T00:37:59.178Z,29.90
2018-03-08T00:40:07.506Z,29.23
2018-03-08T00:42:08.575Z,30.73
2018-03-08T00:44:10.564Z,24.10
2018-03-08T00:46:13.354Z,29.13
2018-03-08T00:48:15.540Z,27.93
2018-03-08T00:50:16.551Z,25.50
2018-03-08T00:52:20.003Z,26.27
2018-03-08T00:54:21.026Z,27.40
2018-03-08T00:56:24.488Z,26.07
2018-03-08T00:58:27.023Z,23.10
2018-03-08T01:00:28.021Z,26.27
2018-03-08T01:02:29.041Z,24.93
2018-03-08T01:04:29.976Z,27.77
2018-03-08T01:06:33.980Z,25.77
2018-03-08T01:08:35.222Z,29.07
2018-03-08T01:10:36.240Z,28.47
2018-03-08T01:12:37.244Z,27.67
2018-03-08T01:14:38.168Z,33.00
2018-03-08T01:16:39.476Z,34.63
2018-03-08T01:18:40.643Z,34.57
2018-03-08T01:20:41.674Z,32.37
2018-03-08T01:22:42.674Z,35.40
2018-03-08T01:24:46.192Z,36.40
2018-03-08T01:26:50.608Z,36.07
2018-03-08T01:28:58.447Z,34.07
2018-03-08T01:30:59.640Z,36.40
2018-03-08T01:33:00.711Z,34.87
2018-03-08T01:37:11.902Z,33.23
2018-03-08T01:39:12.894Z,36.30
2018-03-08T01:41:13.960Z,36.03
2018-03-08T01:43:21.201Z,36.77
2018-03-08T01:45:33.434Z,33.80
2018-03-08T01:49:49.467Z,35.50
2018-03-08T01:52:02.669Z,31.83
2018-03-08T01:54:03.696Z,36.80
2018-03-08T01:58:15.522Z,34.30
2018-03-08T02:00:17.237Z,35.97
2018-03-08T02:02:23.500Z,33.40
2018-03-08T02:06:36.480Z,32.80
2018-03-08T02:08:37.476Z,35.93
2018-03-08T02:10:38.450Z,34.50
2018-03-08T02:12:39.417Z,35.77
2018-03-08T02:14:40.391Z,31.27
2018-03-08T02:16:46.978Z,35.00
2018-03-08T02:18:51.513Z,33.57
2018-03-08T02:20:54.225Z,32.50
2018-03-08T02:22:55.246Z,32.63
2018-03-08T02:24:56.277Z,29.10
2018-03-08T02:27:00.650Z,32.00
2018-03-08T02:29:01.807Z,34.30
2018-03-08T02:31:03.801Z,31.87
2018-03-08T02:33:07.132Z,32.03
2018-03-08T02:35:08.190Z,33.30
2018-03-08T02:37:09.177Z,32.40
2018-03-08T02:39:12.024Z,29.83
2018-03-08T02:41:20.964Z,30.80
2018-03-08T02:43:22.161Z,33.03
2018-03-08T02:45:23.729Z,32.37
2018-03-08T02:47:25.350Z,30.17
2018-03-08T02:49:28.907Z,30.30
2018-03-08T02:51:30.026Z,32.90
2018-03-08T02:53:31.141Z,28.83
2018-03-08T02:55:32.109Z,31.20
2018-03-08T02:57:34.058Z,31.40
2018-03-08T02:59:36.671Z,31.20
2018-03-08T03:01:39.535Z,30.67
2018-03-08T03:03:40.601Z,32.33
2018-03-08T03:05:42.534Z,29.90
2018-03-08T03:07:45.321Z,27.27
2018-03-08T03:10:04.952Z,27.60
2018-03-08T03:12:06.650Z,24.73
2018-03-08T03:14:07.680Z,25.00
2018-03-08T03:16:08.633Z,22.60
2018-03-08T03:18:09.627Z,15.40
2018-03-08T03:20:10.575Z,16.97
2018-03-08T03:22:11.538Z,16.40
2018-03-08T03:24:12.511Z,16.30
2018-03-08T03:26:14.395Z,16.57
2018-03-08T03:30:27.892Z,17.80
2018-03-08T03:32:30.744Z,17.00
2018-03-08T03:34:31.791Z,19.43
2018-03-08T03:36:34.192Z,16.67
2018-03-08T03:38:35.364Z,17.20
2018-03-08T03:40:36.996Z,16.00
2018-03-08T03:42:38.012Z,16.17
2018-03-08T03:44:38.987Z,15.23
2018-03-08T03:46:40.287Z,12.97
2018-03-08T03:48:41.667Z,13.50
2018-03-08T03:50:42.764Z,11.80
2018-03-08T03:52:43.789Z,13.30
2018-03-08T03:54:44.773Z,12.90
2018-03-08T03:56:46.109Z,9.47
2018-03-08T03:58:48.065Z,8.23
2018-03-08T04:00:49.053Z,8.00
2018-03-08T04:02:50.336Z,7.20
2018-03-08T04:04:51.526Z,6.97
2018-03-08T04:06:52.758Z,7.67
2018-03-08T04:08:53.976Z,7.77
2018-03-08T04:10:54.983Z,7.00
2018-03-08T04:12:56.938Z,6.67
2018-03-08T04:14:57.929Z,5.90
2018-03-08T04:16:58.883Z,5.17
2018-03-08T04:19:00.016Z,5.70
2018-03-08T04:21:01.053Z,7.37
2018-03-08T04:23:02.027Z,5.90
2018-03-08T04:25:03.047Z,7.03
2018-03-08T04:27:04.036Z,7.17
2018-03-08T04:29:05.084Z,6.80
2018-03-08T04:31:06.048Z,7.27
2018-03-08T04:33:07.133Z,8.63
2018-03-08T04:35:08.860Z,8.00
2018-03-08T04:37:09.870Z,8.60
2018-03-08T04:39:10.907Z,8.40
2018-03-08T04:41:12.623Z,8.20
2018-03-08T04:43:14.461Z,8.30
2018-03-08T04:45:15.436Z,9.30
2018-03-08T04:47:16.367Z,9.63
2018-03-08T04:49:17.352Z,10.33
2018-03-08T04:51:18.397Z,11.40
2018-03-08T04:53:19.448Z,11.43
2018-03-08T04:55:20.415Z,11.17
2018-03-08T04:57:21.385Z,12.77
2018-03-08T04:59:22.371Z,14.90
2018-03-08T05:01:23.421Z,14.60
2018-03-08T05:03:24.389Z,15.00
2018-03-08T05:05:25.400Z,17.60
2018-03-08T05:07:26.387Z,17.57
2018-03-08T05:09:27.371Z,18.13
2018-03-08T05:11:28.324Z,17.43
2018-03-08T05:13:29.307Z,18.27
2018-03-08T05:15:30.292Z,19.00
2018-03-08T05:17:31.226Z,20.90
2018-03-08T05:19:32.198Z,19.53
2018-03-08T05:21:33.280Z,22.83
2018-03-08T05:23:34.517Z,20.37
2018-03-08T05:25:35.586Z,21.80
2018-03-08T05:27:37.305Z,22.13
2018-03-08T05:29:45.394Z,23.80
2018-03-08T05:31:46.436Z,20.83
2018-03-08T05:33:47.658Z,23.47
2018-03-08T05:35:49.103Z,23.60
2018-03-08T05:37:50.197Z,25.27
2018-03-08T05:39:51.176Z,26.10
2018-03-08T05:41:52.127Z,26.87
2018-03-08T05:43:53.481Z,24.57
2018-03-08T05:45:54.553Z,26.77
2018-03-08T05:47:55.558Z,29.73
2018-03-08T05:49:56.532Z,26.37
2018-03-08T05:51:57.655Z,26.77
2018-03-08T05:53:58.614Z,27.20
2018-03-08T05:55:59.581Z,27.13
2018-03-08T05:58:00.535Z,29.23
2018-03-08T06:00:01.500Z,28.30
2018-03-08T06:02:02.552Z,29.63
2018-03-08T06:04:04.824Z,28.37
2018-03-08T06:06:06.355Z,30.77
2018-03-08T06:08:07.391Z,29.40
2018-03-08T06:10:08.348Z,31.00
2018-03-08T06:12:09.378Z,33.50
2018-03-08T06:14:10.423Z,32.73
2018-03-08T06:16:11.846Z,33.97
2018-03-08T06:18:14.033Z,33.23
2018-03-08T06:20:15.164Z,34.83
2018-03-08T06:22:16.133Z,35.47
2018-03-08T06:24:17.987Z,35.20
2018-03-08T06:26:19.508Z,35.13
2018-03-08T06:28:20.501Z,31.17
2018-03-08T06:30:21.475Z,33.37
2018-03-08T06:32:22.423Z,37.17
2018-03-08T06:34:24.113Z,34.43
2018-03-08T06:36:25.174Z,36.67
2018-03-08T06:38:26.145Z,35.90
2018-03-08T06:40:27.320Z,36.37
2018-03-08T06:42:30.002Z,38.43
2018-03-08T06:44:31.595Z,41.20
2018-03-08T06:46:32.565Z,41.27
2018-03-08T06:48:33.536Z,38.47
2018-03-08T06:50:34.598Z,38.60
2018-03-08T06:52:35.556Z,37.80
2018-03-08T06:54:36.609Z,38.80
2018-03-08T06:56:40.409Z,37.53
2018-03-08T06:58:43.984Z,39.77
2018-03-08T07:00:51.825Z,36.00
2018-03-08T07:02:56.505Z,38.60
2018-03-08T07:05:01.011Z,38.40
2018-03-08T07:07:02.108Z,39.73
2018-03-08T07:09:03.322Z,40.50
2018-03-08T07:11:04.335Z,39.17
2018-03-08T07:13:12.401Z,40.23
2018-03-08T07:15:21.597Z,39.67
2018-03-08T07:17:27.837Z,38.37
2018-03-08T07:19:28.929Z,40.43
2018-03-08T07:21:31.548Z,36.80
2018-03-08T07:23:34.164Z,35.10
2018-03-08T07:25:36.798Z,40.33
2018-03-08T07:27:37.829Z,36.70
2018-03-08T07:29:52.496Z,38.47
2018-03-08T07:31:56.911Z,37.00
2018-03-08T07:34:02.399Z,39.83
2018-03-08T07:36:07.671Z,37.87
2018-03-08T07:38:10.173Z,34.37
2018-03-08T07:40:25.028Z,37.47
2018-03-08T07:45:05.333Z,35.20
2018-03-08T07:47:06.500Z,41.00
2018-03-08T07:51:46.134Z,37.10
2018-03-08T07:53:47.503Z,34.50
2018-03-08T07:55:48.548Z,37.77
2018-03-08T07:57:49.590Z,32.03
2018-03-08T07:59:50.557Z,37.07
2018-03-08T08:07:11.497Z,37.33
2018-03-08T08:09:12.543Z,37.53
2018-03-08T08:11:13.487Z,35.37
2018-03-08T08:13:14.430Z,35.47
2018-03-08T08:15:15.448Z,40.03
2018-03-08T08:17:17.716Z,42.37
2018-03-08T08:21:55.528Z,37.47
2018-03-08T08:23:56.523Z,38.97
2018-03-08T08:25:57.945Z,41.63
2018-03-08T08:27:59.220Z,41.80
2018-03-08T08:30:00.507Z,40.23
2018-03-08T08:32:01.498Z,37.57
2018-03-08T08:34:02.523Z,41.73
2018-03-08T08:36:03.723Z,41.00
2018-03-08T08:40:41.300Z,37.67
2018-03-08T08:42:42.362Z,37.27
2018-03-08T08:44:43.365Z,37.90
2018-03-08T08:46:44.399Z,37.27
2018-03-08T08:48:45.674Z,39.40
2018-03-08T08:50:50.250Z,33.27
2018-03-08T08:52:51.344Z,35.53
2018-03-08T08:54:52.511Z,34.37
2018-03-08T08:56:54.225Z,31.50
2018-03-08T09:22:04.622Z,20.77
2018-03-08T09:24:07.476Z,22.43
2018-03-08T09:26:08.485Z,22.30
2018-03-08T09:28:09.440Z,22.97
2018-03-08T09:30:10.484Z,23.60
2018-03-08T09:37:26.007Z,15.30
2018-03-08T09:39:26.971Z,12.90
2018-03-08T09:48:53.838Z,14.93
2018-03-08T09:50:54.816Z,14.90
2018-03-08T09:53:00.538Z,11.10
2018-03-08T09:55:02.229Z,13.80
2018-03-08T09:57:03.268Z,11.37
2018-03-08T10:07:05.759Z,11.00
2018-03-08T10:12:06.014Z,10.67
2018-03-08T10:14:07.200Z,12.97
2018-03-08T10:18:45.262Z,10.70
2018-03-08T10:20:46.202Z,11.17
2018-03-08T10:22:47.382Z,10.43
2018-03-08T10:24:48.306Z,10.13
2018-03-08T10:26:49.261Z,9.63
2018-03-08T10:28:50.231Z,10.53
2018-03-08T10:30:51.247Z,9.30
2018-03-08T10:35:41.908Z,9.40
2018-03-08T10:37:42.912Z,9.07
2018-03-08T10:39:43.962Z,8.40
2018-03-08T10:44:13.771Z,7.80
2018-03-08T10:46:15.502Z,7.80
2018-03-08T10:48:16.583Z,5.90
2018-03-08T10:50:32.330Z,7.37
2018-03-08T10:52:33.381Z,7.40
2018-03-08T10:54:36.288Z,6.80
2018-03-08T10:56:38.068Z,7.50
2018-03-08T11:08:59.856Z,6.67
2018-03-08T11:16:15.144Z,5.87
2018-03-08T11:18:16.123Z,5.93
2018-03-08T11:20:17.564Z,5.13
2018-03-08T11:22:18.581Z,5.87
2018-03-08T11:24:19.582Z,5.80
2018-03-08T11:26:20.548Z,4.90
2018-03-08T11:30:49.482Z,5.27
2018-03-08T11:37:58.099Z,4.27
2018-03-08T11:40:02.742Z,3.50
2018-03-08T11:42:04.093Z,3.90
2018-03-08T11:44:06.185Z,3.07
2018-03-08T11:46:07.529Z,3.23
2018-03-08T11:50:51.731Z,3.63
2018-03-08T12:00:10.936Z,2.83
2018-03-08T12:04:42.854Z,3.70
2018-03-08T12:06:43.874Z,3.90
2018-03-08T12:08:44.853Z,3.63
2018-03-08T12:10:45.888Z,3.77
2018-03-08T12:12:47.589Z,2.90
2018-03-08T12:17:25.404Z,2.70
2018-03-08T12:19:35.263Z,2.80
2018-03-08T12:21:43.135Z,3.73
2018-03-08T12:23:44.072Z,3.47
2018-03-08T12:25:46.052Z,3.33
2018-03-08T12:27:47.027Z,3.67
2018-03-08T12:29:52.643Z,3.27
2018-03-08T12:32:21.821Z,3.00
2018-03-08T12:36:44.786Z,3.33
2018-03-08T12:41:22.976Z,3.10
2018-03-08T12:43:23.968Z,3.20
2018-03-08T12:45:24.932Z,3.93
2018-03-08T12:47:25.933Z,3.17
2018-03-08T12:49:26.973Z,3.13
2018-03-08T12:54:07.348Z,3.43
2018-03-08T12:56:09.183Z,3.20
2018-03-08T13:03:25.823Z,3.87
2018-03-08T13:05:26.808Z,3.30
2018-03-08T13:10:05.357Z,3.07
2018-03-08T13:12:06.387Z,2.97
2018-03-08T13:16:44.975Z,3.43
2018-03-08T13:18:46.089Z,3.37
2018-03-08T13:20:48.777Z,4.00
2018-03-08T13:22:50.679Z,3.70
2018-03-08T13:24:51.697Z,3.00
2018-03-08T13:26:52.850Z,2.73
2018-03-08T13:34:03.955Z,3.73
2018-03-08T13:36:05.067Z,3.43
2018-03-08T13:38:06.094Z,4.10
2018-03-08T13:40:24.671Z,4.93
2018-03-08T13:42:26.958Z,4.27
2018-03-08T13:54:28.063Z,4.00
2018-03-08T13:59:06.347Z,4.80
2018-03-08T14:03:45.735Z,4.03
2018-03-08T14:08:30.688Z,5.30
2018-03-08T14:12:59.968Z,4.93
2018-03-08T14:17:38.262Z,4.30
2018-03-08T14:19:39.414Z,4.77
2018-03-08T14:21:48.300Z,5.07
2018-03-08T14:24:03.334Z,4.20
2018-03-08T14:26:04.480Z,4.20
2018-03-08T14:37:19.098Z,3.80
2018-03-08T14:39:20.815Z,4.47
2018-03-08T14:41:21.880Z,4.20
2018-03-08T14:48:37.497Z,3.70
2018-03-08T14:50:38.535Z,3.00
2018-03-08T14:53:00.239Z,4.03
2018-03-08T14:55:01.239Z,4.10
2018-03-08T14:57:02.272Z,4.00
2018-03-08T14:59:03.824Z,4.03
2018-03-08T15:01:04.999Z,3.83
2018-03-08T15:03:06.002Z,3.43
2018-03-08T15:05:32.205Z,4.27
2018-03-08T15:07:34.561Z,2.93
2018-03-08T15:09:41.619Z,3.60
2018-03-08T15:11:43.337Z,3.53
2018-03-08T15:13:44.332Z,3.27
2018-03-08T15:18:18.296Z,3.33
2018-03-08T15:20:41.057Z,2.43
2018-03-08T15:22:42.228Z,3.17
2018-03-08T15:24:46.222Z,2.50
2018-03-08T15:29:15.470Z,3.30
2018-03-08T15:31:16.446Z,2.87
2018-03-08T15:33:22.193Z,3.23
2018-03-08T15:35:23.480Z,2.33
2018-03-08T15:37:24.443Z,3.20
2018-03-08T15:39:49.683Z,3.60
2018-03-08T15:42:00.415Z,3.43
2018-03-08T15:44:01.529Z,3.70
2018-03-08T15:46:02.548Z,3.77
2018-03-08T15:48:03.691Z,4.53
2018-03-08T15:50:28.632Z,3.60
2018-03-08T15:52:51.133Z,4.13
2018-03-08T15:55:56.348Z,4.77
2018-03-08T16:05:46.809Z,4.93
2018-03-08T16:07:53.930Z,4.70
2018-03-08T16:10:31.752Z,5.10
2018-03-08T16:12:32.815Z,4.03
2018-03-08T16:14:54.156Z,4.30
2018-03-08T16:17:05.758Z,4.43
2018-03-08T16:19:06.804Z,5.63
2018-03-08T16:21:07.802Z,6.23
2018-03-08T16:23:19.621Z,4.77
2018-03-08T16:25:20.686Z,5.20
2018-03-08T16:27:21.669Z,6.23
2018-03-08T16:31:59.748Z,5.10
2018-03-08T16:34:00.769Z,5.00
2018-03-08T16:36:26.184Z,6.17
2018-03-08T16:38:27.207Z,4.77
2018-03-08T16:40:28.153Z,3.73
2018-03-08T16:42:29.130Z,4.33
2018-03-08T16:44:30.087Z,6.50
2018-03-08T16:46:31.046Z,4.80
2018-03-08T16:48:32.016Z,5.50
2018-03-08T16:50:33.013Z,3.33
2018-03-08T16:52:34.068Z,4.73
2018-03-08T16:54:35.072Z,6.13
2018-03-08T16:56:36.180Z,7.10
2018-03-08T16:58:38.447Z,5.43
2018-03-08T17:00:39.465Z,5.90
2018-03-08T17:02:40.810Z,5.90
2018-03-08T17:04:41.827Z,5.70
2018-03-08T17:06:43.276Z,7.40
2018-03-08T17:08:44.644Z,7.00
2018-03-08T17:10:46.377Z,7.20
2018-03-08T17:12:47.624Z,7.27
2018-03-08T17:14:48.684Z,7.00
2018-03-08T17:16:50.107Z,6.23
2018-03-08T17:18:51.116Z,6.10
2018-03-08T17:20:54.136Z,6.67
2018-03-08T17:22:55.300Z,6.20
2018-03-08T17:29:07.880Z,6.10
2018-03-08T17:31:08.862Z,7.50
2018-03-08T17:33:09.839Z,6.80
2018-03-08T17:35:10.789Z,6.97
2018-03-08T17:37:11.751Z,6.07
2018-03-08T17:39:12.864Z,6.07
2018-03-08T17:41:13.927Z,6.70
2018-03-08T17:43:27.664Z,7.03
2018-03-08T17:45:28.720Z,6.50
2018-03-08T17:47:29.765Z,6.83
2018-03-08T17:49:30.789Z,8.00
2018-03-08T17:51:31.822Z,5.00
2018-03-08T17:53:32.922Z,7.80
2018-03-08T17:55:33.924Z,7.77
2018-03-08T17:57:35.080Z,7.63
2018-03-08T17:59:36.051Z,7.40
2018-03-08T18:01:37.755Z,8.00
2018-03-08T18:03:39.125Z,6.37
2018-03-08T18:05:40.161Z,4.57
2018-03-08T18:07:41.250Z,7.77
2018-03-08T18:09:42.963Z,6.67
2018-03-08T18:11:44.000Z,7.20
2018-03-08T18:13:45.061Z,5.93
2018-03-08T18:15:48.921Z,4.97
2018-03-08T18:17:50.061Z,5.57
2018-03-08T18:19:53.559Z,4.90
2018-03-08T18:21:56.167Z,5.57
2018-03-08T18:23:57.869Z,6.20
2018-03-08T18:28:07.911Z,4.63
2018-03-08T18:30:08.907Z,4.10
2018-03-08T18:32:19.823Z,5.27
2018-03-08T18:34:20.930Z,3.73
2018-03-08T18:36:25.389Z,4.13
2018-03-08T18:40:33.580Z,4.93
2018-03-08T18:42:34.793Z,4.77
2018-03-08T18:44:37.147Z,3.77
2018-03-08T18:46:39.385Z,3.73
2018-03-08T18:48:40.355Z,2.93
2018-03-08T18:50:41.419Z,2.60
2018-03-08T18:52:42.436Z,1.60
2018-03-08T18:54:43.580Z,1.97
2018-03-08T18:56:45.579Z,2.30
2018-03-08T18:58:46.660Z,2.50
2018-03-08T19:00:47.705Z,2.47
2018-03-08T19:02:48.688Z,3.03
2018-03-08T19:04:50.042Z,2.33
2018-03-08T19:06:51.279Z,2.10
2018-03-08T19:08:52.309Z,2.40
2018-03-08T19:10:53.491Z,2.00
2018-03-08T19:12:54.794Z,2.10
2018-03-08T19:14:55.856Z,2.30
2018-03-08T19:16:56.840Z,1.90
2018-03-08T19:18:58.015Z,1.80
2018-03-08T19:20:59.042Z,1.80
2018-03-08T19:23:00.008Z,2.03
2018-03-08T19:25:01.287Z,1.70
2018-03-08T19:27:02.551Z,1.73
2018-03-08T19:29:03.591Z,2.10
2018-03-08T19:31:04.624Z,2.07
2018-03-08T19:33:07.019Z,2.13
2018-03-08T19:35:08.086Z,2.20
2018-03-08T19:37:09.076Z,2.13
2018-03-08T19:39:10.032Z,2.17
2018-03-08T19:41:11.259Z,2.00
2018-03-08T19:43:12.394Z,2.57
2018-03-08T19:45:13.455Z,2.40
2018-03-08T19:47:15.459Z,2.47
2018-03-08T19:49:23.745Z,3.40
2018-03-08T19:51:24.852Z,2.90
2018-03-08T19:53:25.869Z,3.03
2018-03-08T19:55:26.866Z,3.50
2018-03-08T19:57:27.904Z,3.53
2018-03-08T19:59:30.029Z,3.40
2018-03-08T20:01:31.128Z,3.60
2018-03-08T20:03:32.880Z,4.20
2018-03-08T20:05:33.910Z,4.23
2018-03-08T20:07:34.958Z,5.23
2018-03-08T20:09:36.084Z,4.00
2018-03-08T20:11:37.112Z,4.63
2018-03-08T20:13:59.373Z,6.37
2018-03-08T20:16:00.392Z,6.27
2018-03-08T20:20:37.411Z,7.10
2018-03-08T20:22:39.151Z,5.83
2018-03-08T20:32:39.442Z,6.80
2018-03-08T20:34:40.764Z,6.47
2018-03-08T20:36:41.796Z,8.47
2018-03-08T20:38:42.797Z,7.53
2018-03-08T20:43:22.554Z,7.70
2018-03-08T20:45:23.619Z,8.40
2018-03-08T20:47:24.637Z,9.20
2018-03-08T20:49:25.757Z,7.77
2018-03-08T20:51:26.797Z,7.20
2018-03-08T20:53:27.799Z,9.83
2018-03-08T20:55:29.866Z,5.27
2018-03-08T20:57:37.745Z,4.50
2018-03-08T20:59:38.696Z,4.00
2018-03-08T21:06:54.026Z,4.80
2018-03-08T21:14:10.514Z,4.00
2018-03-08T21:16:12.160Z,3.90
2018-03-08T21:21:10.500Z,3.90
2018-03-08T21:23:11.640Z,4.73
2018-03-08T21:27:51.019Z,4.80
2018-03-08T21:29:52.269Z,4.77
2018-03-08T21:31:53.249Z,4.70
2018-03-08T21:33:54.240Z,5.20
2018-03-08T21:38:47.971Z,6.07
2018-03-08T21:40:48.956Z,5.60
2018-03-08T21:42:49.919Z,6.20
2018-03-08T21:44:50.911Z,6.30
2018-03-08T21:46:51.873Z,5.27
2018-03-08T21:48:52.814Z,6.00
2018-03-08T21:51:04.395Z,6.80
2018-03-08T22:17:48.250Z,6.70
2018-03-08T22:19:52.178Z,9.63
2018-03-08T22:26:36.171Z,7.70
2018-03-08T22:31:06.904Z,8.53
2018-03-08T22:33:10.874Z,8.20
2018-03-08T22:42:49.796Z,7.87
2018-03-08T22:44:52.638Z,8.20
2018-03-08T22:47:07.691Z,9.23
2018-03-08T23:02:17.493Z,8.23
2018-03-08T23:07:09.351Z,8.40
2018-03-08T23:09:16.921Z,9.30
2018-03-08T23:11:21.903Z,8.10
2018-03-08T23:15:59.330Z,10.07
2018-03-08T23:20:37.968Z,10.83
2018-03-08T23:25:16.934Z,10.07
2018-03-08T23:30:04.998Z,10.23
2018-03-08T23:34:37.351Z,9.17
2018-03-08T23:36:38.695Z,7.27
2018-03-08T23:38:41.435Z,9.43
2018-03-08T23:43:06.705Z,9.23
2018-03-08T23:45:33.660Z,8.60
2018-03-08T23:47:35.821Z,5.83
2018-03-08T23:54:47.433Z,6.43
